Terminal Aerodrome Forecast
Issued by NWS Louisville, KY

Home | Current Version | Previous Version | Text Only | Print | Product List | Glossary On
Versions: 1 2 3 4 5 6 7 8 9 10 11 12 13 14 15 16 17 18 19 20 21 22 23 24
000
FTUS43 KLMK 151100
TAFSDF
TAF
KSDF 151120Z 1512/1618 12005KT P6SM OVC016
     FM151600 15007KT P6SM SCT035 BKN150
     FM152200 16010KT P6SM -SHRA BKN035
     FM160700 22010KT P6SM BKN030=

USA.gov is the U.S. government's official web portal to all federal, state and local government web resources and services.